Time;durP1;ratioP1;P1;durP2;ratioP2;P2;SDS_P1;SDS_P2;PMS_P1;PMS_P2;Temp;Humidity;BMP_temperature;BMP_pressure;BME280_temperature;BME280_humidity;BME280_pressure;Samples;Min_cycle;Max_cycle;Signal;HPM_P1;HPM_P2
2024/02/29 06:57:36;;;;;;;67.10;24.33;;;;;;;-1.54;100.00;101221.34;4896553;29;20047;-88
2024/02/29 07:00:05;;;;;;;67.90;25.43;;;;;;;-1.46;100.00;101206.09;4873501;29;20069;-89
2024/02/29 07:44:59;;;;;;;58.77;23.97;;;;;;;-0.15;100.00;101179.44;4927494;29;20526;-89
2024/02/29 07:47:32;;;;;;;53.90;21.93;;;;;;;-0.09;100.00;101171.81;4918337;29;20095;-89
2024/02/29 07:49:59;;;;;;;54.53;22.80;;;;;;;-0.04;100.00;101171.97;4885445;29;20373;-88
2024/02/29 07:52:28;;;;;;;56.13;23.93;;;;;;;0.16;100.00;101169.97;4885888;29;20047;-89
2024/02/29 07:54:55;;;;;;;51.30;22.87;;;;;;;0.17;100.00;101174.31;4885503;29;20044;-88
2024/02/29 07:57:22;;;;;;;49.20;21.93;;;;;;;0.19;100.00;101167.47;4900398;29;20044;-90
2024/02/29 07:59:49;;;;;;;56.93;22.37;;;;;;;0.46;100.00;101165.66;4900668;29;20060;-88
2024/02/29 08:02:17;;;;;;;49.83;20.33;;;;;;;0.55;100.00;101172.84;4900955;29;20048;-89
2024/02/29 08:04:48;;;;;;;54.00;22.80;;;;;;;0.73;100.00;101169.88;4896972;29;20071;-89
2024/02/29 08:07:15;;;;;;;50.70;21.50;;;;;;;0.90;100.00;101171.22;4918895;29;20059;-89
2024/02/29 08:09:42;;;;;;;45.80;21.43;;;;;;;1.09;100.00;101165.66;4903328;29;20048;-90
2024/02/29 08:12:10;;;;;;;47.17;21.70;;;;;;;1.21;100.00;101169.41;4903532;29;20079;-89
2024/02/29 08:14:37;;;;;;;55.20;22.17;;;;;;;1.49;100.00;101160.56;4903032;29;20099;-90
2024/02/29 08:17:04;;;;;;;44.67;20.63;;;;;;;1.61;100.00;101169.56;4903453;29;20071;-90
2024/02/29 08:19:31;;;;;;;44.17;20.63;;;;;;;1.89;100.00;101172.81;4903313;29;20518;-90
2024/02/29 08:21:59;;;;;;;46.23;20.13;;;;;;;2.07;100.00;101168.00;4918852;29;20144;-90
2024/02/29 08:24:26;;;;;;;46.23;20.23;;;;;;;2.30;100.00;101170.25;4903212;29;20510;-91
2024/02/29 08:26:53;;;;;;;43.60;20.40;;;;;;;2.58;100.00;101158.63;4918965;29;20086;-91
2024/02/29 08:29:21;;;;;;;40.17;18.27;;;;;;;2.73;100.00;101157.22;4917806;29;20503;-91
2024/02/29 08:31:49;;;;;;;38.80;17.53;;;;;;;2.78;100.00;101158.19;4935907;29;20047;-91
2024/02/29 08:34:17;;;;;;;37.63;16.90;;;;;;;2.83;100.00;101150.44;4903411;29;20498;-92
2024/02/29 08:36:45;;;;;;;35.93;16.40;;;;;;;3.01;100.00;101148.16;4903978;29;20043;-93
2024/02/29 08:39:14;;;;;;;33.80;17.50;;;;;;;3.19;100.00;101145.00;4903744;29;20042;-92
2024/02/29 08:41:44;;;;;;;36.60;16.37;;;;;;;3.37;100.00;101134.88;4904622;29;20437;-92
2024/02/29 08:44:11;;;;;;;36.70;16.77;;;;;;;3.47;100.00;101129.81;4904046;29;20044;-92
2024/02/29 08:46:39;;;;;;;35.43;17.80;;;;;;;3.52;100.00;101126.38;4933854;29;20055;-91
2024/02/29 08:49:07;;;;;;;34.37;16.53;;;;;;;3.73;100.00;101127.59;4903374;29;20051;-90
2024/02/29 08:51:34;;;;;;;33.20;15.70;;;;;;;3.88;100.00;101126.06;4902408;29;20110;-91
2024/02/29 08:54:03;;;;;;;32.47;17.10;;;;;;;3.94;95.88;101120.91;4902898;29;20495;-92
2024/02/29 08:56:33;;;;;;;31.90;15.77;;;;;;;4.06;95.84;101122.84;4903572;29;20048;-89
2024/02/29 08:59:00;;;;;;;29.03;15.20;;;;;;;4.13;92.54;101123.78;4902287;29;20455;-89
2024/02/29 09:01:27;;;;;;;33.40;15.67;;;;;;;4.30;92.33;101121.41;4918098;29;20392;-88
2024/02/29 09:03:55;;;;;;;32.20;16.57;;;;;;;4.34;91.84;101115.31;4911082;29;20063;-89
2024/02/29 09:06:22;;;;;;;33.40;17.03;;;;;;;4.55;89.43;101112.09;4879130;29;20051;-89
2024/02/29 09:08:49;;;;;;;34.53;15.97;;;;;;;4.73;89.12;101112.31;4898855;29;20682;-89
2024/02/29 09:11:16;;;;;;;26.40;14.73;;;;;;;4.89;86.11;101108.97;4899028;29;20521;-88
2024/02/29 09:13:44;;;;;;;26.90;14.70;;;;;;;5.06;88.71;101106.53;4883699;29;20096;-89
2024/02/29 09:16:11;;;;;;;26.83;14.53;;;;;;;5.07;84.53;101109.16;4914555;29;20058;-90
2024/02/29 09:18:39;;;;;;;26.13;13.03;;;;;;;5.12;81.85;101097.81;4883638;29;20040;-88
2024/02/29 09:21:06;;;;;;;22.97;12.87;;;;;;;5.34;83.78;101097.13;4912157;29;20036;-88
2024/02/29 09:23:35;;;;;;;25.77;12.80;;;;;;;5.57;81.85;101094.69;4864744;29;20492;-89
2024/02/29 09:26:02;;;;;;;26.73;13.57;;;;;;;5.74;79.94;101087.81;4864692;29;20112;-88
2024/02/29 09:28:29;;;;;;;25.13;13.00;;;;;;;5.69;75.61;101083.41;4864512;29;20059;-88
2024/02/29 09:30:56;;;;;;;25.80;13.83;;;;;;;5.79;74.27;101083.47;4864654;29;20412;-90
2024/02/29 09:33:25;;;;;;;25.27;13.57;;;;;;;5.93;73.31;101080.97;4874939;29;20043;-89
2024/02/29 09:35:57;;;;;;;25.97;12.77;;;;;;;6.11;77.41;101083.66;4898705;29;20124;-88
2024/02/29 09:38:24;;;;;;;24.03;13.63;;;;;;;6.30;73.52;101079.34;4898815;29;20127;-89
2024/02/29 09:40:51;;;;;;;21.43;11.87;;;;;;;6.43;70.11;101075.03;4882964;29;20140;-89
2024/02/29 09:43:33;;;;;;;22.53;12.67;;;;;;;6.60;70.99;101078.59;4884314;29;20047;-91
2024/02/29 09:46:02;;;;;;;23.40;13.00;;;;;;;6.49;65.57;101064.56;4882704;29;20044;-89
2024/02/29 09:48:29;;;;;;;25.07;13.67;;;;;;;6.66;69.08;101069.88;4882934;29;20045;-89
2024/02/29 09:50:59;;;;;;;26.27;13.07;;;;;;;6.76;70.18;101063.75;4874805;29;20547;-89
2024/02/29 09:53:27;;;;;;;23.90;12.87;;;;;;;6.96;70.89;101066.38;4883142;29;20504;-89
2024/02/29 09:55:56;;;;;;;23.20;12.17;;;;;;;7.19;68.73;101064.66;4898251;29;20071;-89
2024/02/29 09:58:25;;;;;;;18.80;11.27;;;;;;;7.37;66.62;101065.50;4898258;29;20044;-89
2024/02/29 10:00:52;;;;;;;20.53;11.47;;;;;;;7.43;64.91;101052.38;4882906;29;20475;-90
2024/02/29 10:03:19;;;;;;;21.67;10.80;;;;;;;7.56;63.95;101054.97;4886831;29;20522;-89
2024/02/29 10:05:46;;;;;;;18.80;10.50;;;;;;;7.59;62.12;101049.72;4868893;29;20051;-90
2024/02/29 10:08:14;;;;;;;20.17;11.20;;;;;;;7.76;62.60;101049.69;4897840;29;20054;-89
2024/02/29 10:10:42;;;;;;;17.10;9.33;;;;;;;7.89;61.65;101043.47;4897978;29;20044;-89
2024/02/29 10:13:09;;;;;;;19.57;10.77;;;;;;;8.05;60.70;101041.66;4867269;29;20052;-89
2024/02/29 10:15:36;;;;;;;19.40;10.73;;;;;;;8.25;61.81;101035.47;4867354;29;20472;-90
2024/02/29 10:18:04;;;;;;;19.87;10.57;;;;;;;8.20;59.58;101032.84;4898033;29;20048;-89
2024/02/29 10:20:32;;;;;;;17.67;10.50;;;;;;;8.21;58.20;101028.44;4888653;29;20059;-89
2024/02/29 10:22:59;;;;;;;18.47;10.90;;;;;;;8.34;61.22;101024.88;4882788;29;20108;-90
2024/02/29 10:25:26;;;;;;;18.40;10.13;;;;;;;8.53;60.40;101025.69;4897916;29;20072;-90
2024/02/29 10:28:02;;;;;;;17.80;10.37;;;;;;;8.71;60.51;101025.53;4897397;29;20595;-89
2024/02/29 10:30:30;;;;;;;17.23;10.07;;;;;;;8.73;57.07;101015.88;4897461;29;20056;-90
2024/02/29 10:32:57;;;;;;;20.15;13.20;;;;;;;8.70;56.51;101014.13;4885786;29;20044;-90
2024/02/29 10:35:26;;;;;;;19.73;11.32;;;;;;;8.78;56.89;101014.09;4881724;29;20415;-90
2024/02/29 10:37:54;;;;;;;16.13;9.38;;;;;;;8.96;57.39;101011.28;4897854;29;20142;-89
2024/02/29 10:40:23;;;;;;;16.13;10.38;;;;;;;9.12;57.35;101009.41;4897499;29;20100;-89
2024/02/29 10:42:54;;;;;;;21.70;14.77;;;;;;;8.76;54.44;101007.09;4882289;29;20131;-90
2024/02/29 10:45:25;;;;;;;17.00;10.95;;;;;;;9.16;55.44;101007.59;4897865;29;20418;-89
2024/02/29 10:48:02;;;;;;;15.05;10.27;;;;;;;9.32;54.61;101007.44;4897840;29;20071;-89
2024/02/29 13:08:41;;;;;;;27.80;16.38;;;;;;;9.88;59.50;100786.94;4927497;29;20059;-87
2024/02/29 13:11:08;;;;;;;28.75;15.65;;;;;;;10.01;59.32;100784.13;4890119;29;20056;-88
2024/02/29 13:13:37;;;;;;;28.52;15.90;;;;;;;9.92;59.19;100777.22;4920385;29;20049;-86
2024/02/29 13:16:04;;;;;;;25.98;15.30;;;;;;;9.68;59.14;100775.81;4897135;29;20056;-89
2024/02/29 13:18:31;;;;;;;26.58;15.93;;;;;;;9.73;60.33;100768.69;4866220;29;20077;-87
2024/02/29 13:20:59;;;;;;;28.38;16.50;;;;;;;9.64;60.21;100755.63;4896684;29;20407;-86
2024/02/29 13:23:30;;;;;;;30.25;17.33;;;;;;;9.72;60.05;100755.53;4881334;29;20504;-87
2024/02/29 13:25:57;;;;;;;26.42;16.15;;;;;;;9.72;60.54;100763.44;4881098;29;20072;-87
2024/02/29 13:28:24;;;;;;;25.45;16.38;;;;;;;9.41;60.82;100758.59;4895477;29;20416;-87
2024/02/29 13:30:51;;;;;;;30.90;17.02;;;;;;;9.61;60.67;100755.69;4897711;29;20127;-87
2024/02/29 13:33:18;;;;;;;27.83;16.60;;;;;;;9.62;61.01;100757.44;4881452;29;20139;-88
2024/02/29 13:35:46;;;;;;;24.92;16.02;;;;;;;9.58;61.35;100754.00;4896917;29;20053;-86
2024/02/29 13:38:13;;;;;;;27.02;16.20;;;;;;;9.32;60.97;100746.41;4888243;29;20041;-86
2024/02/29 13:40:40;;;;;;;26.75;15.35;;;;;;;9.41;62.13;100745.41;4895948;29;20075;-86
2024/02/29 13:43:07;;;;;;;26.55;14.43;;;;;;;9.38;62.40;100740.19;4896446;29;20080;-87
2024/02/29 13:45:37;;;;;;;25.85;14.23;;;;;;;9.43;63.38;100748.06;4880693;29;20116;-86
2024/02/29 13:48:05;;;;;;;27.02;14.50;;;;;;;9.52;63.00;100745.28;4895973;29;20045;-88
2024/02/29 13:50:33;;;;;;;25.30;15.60;;;;;;;9.36;62.85;100735.84;4880720;29;20048;-88
2024/02/29 13:53:00;;;;;;;25.90;14.63;;;;;;;9.44;62.46;100726.06;4896363;29;20045;-86
2024/02/29 13:55:27;;;;;;;23.15;15.60;;;;;;;9.45;63.20;100733.09;4896638;29;20441;-86
2024/02/29 13:57:55;;;;;;;26.42;14.90;;;;;;;9.32;62.88;100724.47;4897199;29;20049;-89
2024/02/29 14:00:22;;;;;;;23.25;14.55;;;;;;;9.40;64.45;100727.00;4880533;29;20051;-86
2024/02/29 14:02:49;;;;;;;25.60;15.00;;;;;;;9.36;64.07;100726.19;4896603;29;20396;-88
2024/02/29 14:05:16;;;;;;;26.33;15.98;;;;;;;9.40;64.00;100716.44;4880740;29;20057;-87
2024/02/29 14:07:43;;;;;;;26.45;15.05;;;;;;;9.40;64.58;100713.81;4895549;29;20132;-90
2024/02/29 14:10:15;;;;;;;24.50;15.55;;;;;;;9.31;63.96;100715.69;4895417;29;20068;-88
2024/02/29 14:12:45;;;;;;;25.70;16.00;;;;;;;9.20;64.84;100714.09;4895219;29;20051;-89
2024/02/29 14:15:13;;;;;;;29.63;17.10;;;;;;;9.24;64.75;100707.88;4895468;29;20064;-87
2024/02/29 14:17:42;;;;;;;26.85;15.68;;;;;;;9.22;65.43;100704.41;4880249;29;20045;-89
2024/02/29 14:20:10;;;;;;;24.23;15.05;;;;;;;9.13;65.82;100696.63;4895607;29;20497;-87
2024/02/29 14:22:38;;;;;;;26.48;15.57;;;;;;;9.10;66.14;100696.69;4880795;29;20124;-87
2024/02/29 14:25:06;;;;;;;27.15;15.75;;;;;;;9.09;66.60;100697.56;4895437;29;20060;-87
2024/02/29 14:27:34;;;;;;;23.00;15.27;;;;;;;9.07;67.06;100691.44;4895144;29;20049;-87
2024/02/29 14:30:01;;;;;;;26.05;16.27;;;;;;;9.13;66.94;100686.94;4895385;29;20416;-88
2024/02/29 14:32:29;;;;;;;27.15;16.38;;;;;;;9.19;67.09;100688.63;4895628;29;20048;-86
2024/02/29 14:34:56;;;;;;;31.55;17.30;;;;;;;9.12;66.57;100681.72;4910942;29;20049;-86
2024/02/29 14:37:24;;;;;;;25.48;16.23;;;;;;;8.95;68.02;100680.19;4907539;29;20412;-87
2024/02/29 14:39:52;;;;;;;29.50;16.30;;;;;;;9.00;68.64;100678.38;4905608;29;20095;-88
2024/02/29 14:42:19;;;;;;;28.33;16.58;;;;;;;8.99;69.67;100679.22;4914162;29;20052;-87
2024/02/29 14:44:46;;;;;;;25.73;15.52;;;;;;;8.94;70.31;100677.56;4929317;29;20146;-89
2024/02/29 14:47:13;;;;;;;24.08;15.75;;;;;;;9.02;68.60;100671.31;4914683;29;20048;-87
2024/02/29 14:49:40;;;;;;;24.88;14.20;;;;;;;8.91;68.54;100673.22;4898793;29;20080;-87
2024/02/29 14:52:08;;;;;;;26.90;14.23;;;;;;;8.93;68.92;100666.16;4898735;29;20131;-87
2024/02/29 14:54:35;;;;;;;26.65;15.30;;;;;;;8.82;68.67;100661.91;4929644;29;20526;-87
2024/02/29 14:57:02;;;;;;;27.30;15.88;;;;;;;8.96;69.06;100658.19;4896901;29;20051;-87
2024/02/29 14:59:30;;;;;;;26.65;17.02;;;;;;;8.98;68.64;100655.53;4894690;29;20037;-86
2024/02/29 15:01:57;;;;;;;30.48;17.92;;;;;;;9.05;68.40;100648.44;4911165;29;20056;-89
2024/02/29 15:04:24;;;;;;;25.70;15.30;;;;;;;8.95;67.37;100638.03;4894977;29;20044;-86
2024/02/29 15:06:51;;;;;;;27.27;17.40;;;;;;;8.89;68.68;100646.00;4886194;29;20054;-87
2024/02/29 15:09:19;;;;;;;28.88;17.70;;;;;;;8.86;71.28;100640.78;4905813;29;20040;-88
2024/02/29 15:11:46;;;;;;;30.38;18.25;;;;;;;8.62;71.48;100641.09;4894641;29;20047;-86
2024/02/29 15:14:13;;;;;;;29.98;16.92;;;;;;;8.59;72.18;100644.66;4879210;29;20064;-87
2024/02/29 15:16:40;;;;;;;28.38;16.48;;;;;;;8.48;72.78;100635.13;4879314;29;20055;-87
2024/02/29 15:19:07;;;;;;;29.52;17.73;;;;;;;8.50;73.06;100644.78;4879512;29;20040;-86
2024/02/29 15:21:34;;;;;;;30.67;17.27;;;;;;;8.42;73.25;100638.72;4909687;29;20120;-89
2024/02/29 15:24:04;;;;;;;32.58;18.67;;;;;;;8.29;74.16;100635.31;4895480;29;20075;-86
2024/02/29 15:26:38;;;;;;;31.58;17.52;;;;;;;8.39;74.78;100644.00;4886458;29;20052;-86
2024/02/29 15:29:06;;;;;;;31.85;18.95;;;;;;;8.43;74.11;100641.34;4895043;29;20045;-86
2024/02/29 15:31:33;;;;;;;29.40;17.48;;;;;;;8.15;75.18;100645.13;4879710;29;20044;-87
2024/02/29 15:34:00;;;;;;;31.20;17.60;;;;;;;8.17;75.49;100646.00;4910115;29;20053;-86
2024/02/29 15:36:28;;;;;;;32.42;17.80;;;;;;;8.01;76.65;100645.28;4879065;29;20512;-87
2024/02/29 15:38:55;;;;;;;31.40;18.13;;;;;;;7.85;77.17;100641.94;4889758;29;20400;-86
2024/02/29 15:41:22;;;;;;;32.17;18.47;;;;;;;7.89;77.35;100638.38;4882617;29;20139;-87
2024/02/29 15:43:49;;;;;;;32.57;17.93;;;;;;;7.76;78.37;100633.25;4897388;29;20330;-89
2024/02/29 15:46:16;;;;;;;33.17;18.67;;;;;;;7.82;78.52;100628.81;4897260;29;20052;-87
2024/02/29 15:48:44;;;;;;;32.13;17.23;;;;;;;7.72;79.38;100632.41;4912417;29;20056;-90
2024/02/29 15:51:11;;;;;;;33.60;19.13;;;;;;;7.71;79.85;100628.03;4892643;29;20041;-87
2024/02/29 15:53:39;;;;;;;58.70;32.90;;;;;;;7.58;80.31;100624.66;4882211;29;20063;-87
2024/02/29 15:56:06;;;;;;;36.93;21.93;;;;;;;7.50;81.26;100628.25;4897836;29;20052;-87
2024/02/29 15:58:33;;;;;;;35.80;21.97;;;;;;;7.40;82.14;100624.81;4898111;29;20052;-87
2024/02/29 16:01:00;;;;;;;35.50;19.17;;;;;;;7.37;83.15;100626.59;4903661;29;20043;-88
2024/02/29 16:03:28;;;;;;;43.40;23.23;;;;;;;7.30;83.47;100626.63;4898260;29;20055;-87
2024/02/29 16:05:55;;;;;;;40.00;22.37;;;;;;;7.05;84.25;100618.03;4896366;29;20061;-86
2024/02/29 16:08:22;;;;;;;38.97;20.80;;;;;;;7.03;85.20;100627.69;4924828;29;20052;-87
2024/02/29 16:10:49;;;;;;;36.40;19.80;;;;;;;6.98;85.83;100623.38;4928174;29;20044;-89
2024/02/29 16:13:18;;;;;;;36.67;21.50;;;;;;;6.91;87.33;100619.03;4922523;29;20504;-87
2024/02/29 16:15:45;;;;;;;33.63;20.80;;;;;;;6.63;88.75;100616.53;4898717;29;20076;-86
2024/02/29 16:18:12;;;;;;;36.43;20.80;;;;;;;6.44;90.06;100628.00;4880441;29;20048;-88
2024/02/29 16:20:40;;;;;;;43.67;25.27;;;;;;;6.47;91.14;100614.88;4883088;29;20400;-89
2024/02/29 16:23:07;;;;;;;42.40;22.73;;;;;;;6.35;92.62;100620.19;4906996;29;20069;-89
2024/02/29 16:25:34;;;;;;;39.13;21.90;;;;;;;6.30;92.31;100609.69;4909781;29;20071;-90
2024/02/29 16:28:01;;;;;;;38.53;19.67;;;;;;;6.05;95.92;100615.91;4886851;29;20087;-87
2024/02/29 16:30:29;;;;;;;35.50;20.03;;;;;;;6.17;94.23;100614.13;4894591;29;20419;-87
2024/02/29 16:32:56;;;;;;;35.30;21.40;;;;;;;6.05;95.25;100608.91;4906899;29;20052;-87
2024/02/29 16:35:23;;;;;;;38.00;21.10;;;;;;;5.91;97.33;100615.94;4877729;29;20053;-87
2024/02/29 16:37:50;;;;;;;40.33;21.00;;;;;;;5.89;96.51;100605.44;4896624;29;20088;-86
2024/02/29 16:40:17;;;;;;;38.30;20.77;;;;;;;5.83;96.73;100601.94;4891530;29;20139;-87
2024/02/29 16:42:45;;;;;;;40.10;20.07;;;;;;;5.70;97.98;100597.59;4901971;29;20131;-88
2024/02/29 16:45:12;;;;;;;38.20;20.80;;;;;;;5.65;98.57;100602.88;4903344;29;20052;-87
2024/02/29 16:47:39;;;;;;;41.23;21.97;;;;;;;5.58;99.85;100595.88;4911552;29;20330;-89
2024/02/29 16:50:07;;;;;;;36.80;19.93;;;;;;;5.50;100.00;100590.63;4893291;29;20384;-87
2024/02/29 16:52:34;;;;;;;35.20;20.07;;;;;;;5.33;100.00;100600.25;4895022;29;20048;-87
2024/02/29 16:55:01;;;;;;;35.20;20.33;;;;;;;5.27;100.00;100590.66;4895657;29;20041;-87
2024/02/29 16:57:28;;;;;;;37.37;20.30;;;;;;;5.22;100.00;100596.78;4911221;29;20049;-87
2024/02/29 16:59:55;;;;;;;36.70;20.57;;;;;;;5.25;100.00;100587.16;4896083;29;20195;-87
2024/02/29 17:02:23;;;;;;;40.20;21.03;;;;;;;5.09;100.00;100590.66;4896212;29;20403;-88
2024/02/29 17:04:50;;;;;;;38.40;19.47;;;;;;;5.04;100.00;100581.91;4895984;29;20583;-87
2024/02/29 17:07:17;;;;;;;43.77;20.90;;;;;;;4.89;100.00;100589.75;4895348;29;20113;-87
2024/02/29 17:09:45;;;;;;;35.63;18.60;;;;;;;4.96;100.00;100587.16;4895739;29;20498;-87
2024/02/29 17:12:13;;;;;;;37.63;20.17;;;;;;;4.91;100.00;100581.03;4911435;29;20058;-86
2024/02/29 17:14:40;;;;;;;38.47;20.27;;;;;;;4.76;100.00;100581.00;4895617;29;20052;-87
2024/02/29 17:17:09;;;;;;;37.80;18.80;;;;;;;4.87;100.00;100579.25;4877308;29;20063;-87
2024/02/29 17:19:37;;;;;;;34.47;19.13;;;;;;;4.65;100.00;100575.75;4906548;29;20048;-90
2024/02/29 17:22:04;;;;;;;36.10;19.37;;;;;;;4.68;100.00;100573.13;4911399;29;20135;-87
2024/02/29 17:24:34;;;;;;;38.63;18.40;;;;;;;4.59;100.00;100574.84;4895634;29;20135;-88
2024/02/29 17:27:01;;;;;;;39.47;19.60;;;;;;;4.83;100.00;100567.06;4903010;29;20386;-87
2024/02/29 17:29:28;;;;;;;33.70;17.90;;;;;;;4.66;100.00;100574.88;4876471;29;20057;-87
2024/02/29 17:31:55;;;;;;;37.53;19.87;;;;;;;4.67;100.00;100558.31;4860955;29;20052;-87
2024/02/29 17:34:22;;;;;;;34.83;19.10;;;;;;;4.75;100.00;100563.56;4876985;29;20055;-87
2024/02/29 17:36:55;;;;;;;34.30;17.47;;;;;;;4.49;100.00;100563.50;4879625;29;20147;-88
2024/02/29 17:39:22;;;;;;;35.17;17.87;;;;;;;4.51;100.00;100559.13;4880635;29;20148;-88
2024/02/29 17:41:50;;;;;;;37.43;18.77;;;;;;;4.72;100.00;100561.81;4876347;29;20048;-87
2024/02/29 17:44:19;;;;;;;39.33;18.67;;;;;;;4.63;100.00;100560.94;4893666;29;20057;-87
2024/02/29 17:46:46;;;;;;;36.03;18.27;;;;;;;4.66;100.00;100550.47;4880003;29;20059;-87
2024/02/29 17:49:15;;;;;;;38.57;19.90;;;;;;;4.66;100.00;100553.06;4894777;29;20297;-87
2024/02/29 17:51:44;;;;;;;32.10;17.97;;;;;;;4.72;100.00;100551.34;4880124;29;20493;-87
2024/02/29 17:54:12;;;;;;;35.10;19.90;;;;;;;4.80;100.00;100543.50;4895738;29;20056;-87
2024/02/29 17:56:41;;;;;;;36.97;20.10;;;;;;;4.92;100.00;100542.63;4896221;29;20053;-87
2024/02/29 17:59:08;;;;;;;38.03;21.03;;;;;;;5.02;100.00;100540.00;4896754;29;20127;-88
2024/02/29 18:01:35;;;;;;;38.80;21.20;;;;;;;5.12;100.00;100543.50;4878212;29;20044;-86
2024/02/29 18:04:02;;;;;;;36.67;20.53;;;;;;;5.22;100.00;100542.66;4898304;29;20062;-86
2024/02/29 18:06:31;;;;;;;34.07;20.10;;;;;;;5.25;100.00;100531.28;4918358;29;20052;-86
2024/02/29 18:08:58;;;;;;;37.80;20.60;;;;;;;5.37;100.00;100545.22;4906661;29;20058;-88
2024/02/29 18:11:25;;;;;;;32.47;20.10;;;;;;;5.60;100.00;100533.84;4888990;29;20046;-88
2024/02/29 18:13:52;;;;;;;35.20;21.37;;;;;;;5.71;100.00;100531.19;4895585;29;20060;-88
2024/02/29 18:16:20;;;;;;;32.57;18.30;;;;;;;5.75;100.00;100530.31;4911546;29;20523;-88
2024/02/29 18:18:47;;;;;;;30.13;16.93;;;;;;;5.77;100.00;100528.56;4911087;29;20140;-91
2024/02/29 18:21:14;;;;;;;30.07;16.97;;;;;;;5.88;100.00;100529.38;4895777;29;20068;-91
2024/02/29 18:23:42;;;;;;;30.23;17.23;;;;;;;5.99;100.00;100524.16;4911160;29;20044;-91
2024/02/29 18:26:09;;;;;;;26.30;14.97;;;;;;;5.97;100.00;100524.16;4879537;29;20079;-94
2024/02/29 18:28:36;;;;;;;27.00;15.43;;;;;;;6.10;100.00;100519.72;4894926;29;20059;-93
2024/02/29 18:31:04;;;;;;;28.83;16.97;;;;;;;6.21;100.00;100516.16;4895464;29;20037;-90
2024/02/29 18:33:31;;;;;;;28.87;16.37;;;;;;;6.17;100.00;100514.44;4880985;29;20059;-91
2024/02/29 18:35:59;;;;;;;26.50;17.13;;;;;;;6.19;100.00;100511.81;4897200;29;20044;-91
2024/02/29 18:38:27;;;;;;;29.67;17.23;;;;;;;6.29;100.00;100512.63;4895674;29;20131;-91
2024/02/29 18:40:54;;;;;;;27.23;15.83;;;;;;;6.22;100.00;100506.53;4894655;29;20103;-90
2024/02/29 18:43:22;;;;;;;28.13;15.83;;;;;;;6.35;100.00;100505.59;4895630;29;20059;-91
2024/02/29 18:45:50;;;;;;;30.47;17.40;;;;;;;6.38;100.00;100504.69;4880081;29;20048;-91
2024/02/29 18:48:32;;;;;;;29.40;15.30;;;;;;;6.44;100.00;100497.69;4910824;29;20051;-91
2024/02/29 18:51:00;;;;;;;28.50;16.03;;;;;;;6.55;100.00;100494.09;4911129;29;20044;-91
2024/02/29 18:53:28;;;;;;;25.87;15.70;;;;;;;6.57;100.00;100490.59;4895893;29;20401;-90
2024/02/29 18:55:55;;;;;;;26.20;14.70;;;;;;;6.70;98.86;100491.38;4896353;29;20527;-92
2024/02/29 18:58:23;;;;;;;24.10;14.43;;;;;;;6.68;99.19;100493.16;4895378;29;20550;-91
2024/02/29 19:00:50;;;;;;;23.83;15.67;;;;;;;6.60;99.37;100489.72;4880340;29;20496;-91
2024/02/29 19:03:18;;;;;;;29.17;16.10;;;;;;;6.64;99.14;100481.81;4895842;29;20056;-91
